sensor_id;sensor_type;location;lat;lon;timestamp;P1;durP1;ratioP1;P2;durP2;ratioP2
15312;SDS011;7757;52.626;4.746;2023-09-07T00:00:35;10.05;;;3.70;;
15312;SDS011;7757;52.626;4.746;2023-09-07T00:03:01;10.55;;;3.50;;
15312;SDS011;7757;52.626;4.746;2023-09-07T00:05:26;10.43;;;3.90;;
15312;SDS011;7757;52.626;4.746;2023-09-07T00:07:51;10.93;;;3.70;;
15312;SDS011;7757;52.626;4.746;2023-09-07T00:10:17;9.75;;;3.50;;
15312;SDS011;7757;52.626;4.746;2023-09-07T00:12:43;10.43;;;3.75;;
15312;SDS011;7757;52.626;4.746;2023-09-07T00:15:08;13.68;;;3.90;;
15312;SDS011;7757;52.626;4.746;2023-09-07T00:17:35;11.43;;;3.90;;
15312;SDS011;7757;52.626;4.746;2023-09-07T00:20:01;10.13;;;3.45;;
15312;SDS011;7757;52.626;4.746;2023-09-07T00:22:35;11.10;;;3.67;;
15312;SDS011;7757;52.626;4.746;2023-09-07T00:25:01;10.70;;;3.60;;
15312;SDS011;7757;52.626;4.746;2023-09-07T00:27:26;10.48;;;3.72;;
15312;SDS011;7757;52.626;4.746;2023-09-07T00:29:52;9.80;;;3.60;;
15312;SDS011;7757;52.626;4.746;2023-09-07T00:32:17;10.90;;;4.00;;
15312;SDS011;7757;52.626;4.746;2023-09-07T00:34:42;11.43;;;3.83;;
15312;SDS011;7757;52.626;4.746;2023-09-07T00:37:08;10.30;;;3.70;;
15312;SDS011;7757;52.626;4.746;2023-09-07T00:39:33;12.57;;;3.80;;
15312;SDS011;7757;52.626;4.746;2023-09-07T00:41:58;9.85;;;3.47;;
15312;SDS011;7757;52.626;4.746;2023-09-07T00:44:24;11.18;;;4.43;;
15312;SDS011;7757;52.626;4.746;2023-09-07T00:46:49;10.50;;;3.90;;
15312;SDS011;7757;52.626;4.746;2023-09-07T00:49:15;10.43;;;3.78;;
15312;SDS011;7757;52.626;4.746;2023-09-07T00:51:40;10.73;;;3.53;;
15312;SDS011;7757;52.626;4.746;2023-09-07T00:54:06;10.95;;;3.70;;
15312;SDS011;7757;52.626;4.746;2023-09-07T00:56:32;10.95;;;4.30;;
15312;SDS011;7757;52.626;4.746;2023-09-07T00:58:58;9.75;;;3.60;;
15312;SDS011;7757;52.626;4.746;2023-09-07T01:01:25;11.52;;;3.33;;
15312;SDS011;7757;52.626;4.746;2023-09-07T01:03:51;10.18;;;3.60;;
15312;SDS011;7757;52.626;4.746;2023-09-07T01:06:25;11.57;;;3.55;;
15312;SDS011;7757;52.626;4.746;2023-09-07T01:08:56;10.07;;;3.53;;
15312;SDS011;7757;52.626;4.746;2023-09-07T01:11:25;9.55;;;3.50;;
15312;SDS011;7757;52.626;4.746;2023-09-07T01:13:51;11.48;;;3.78;;
15312;SDS011;7757;52.626;4.746;2023-09-07T01:16:19;12.15;;;3.70;;
15312;SDS011;7757;52.626;4.746;2023-09-07T01:18:45;12.80;;;3.58;;
15312;SDS011;7757;52.626;4.746;2023-09-07T01:21:12;11.07;;;3.72;;
15312;SDS011;7757;52.626;4.746;2023-09-07T01:23:40;10.18;;;3.50;;
15312;SDS011;7757;52.626;4.746;2023-09-07T01:26:07;10.80;;;3.55;;
15312;SDS011;7757;52.626;4.746;2023-09-07T01:28:34;10.20;;;3.60;;
15312;SDS011;7757;52.626;4.746;2023-09-07T01:31:00;10.65;;;3.55;;
15312;SDS011;7757;52.626;4.746;2023-09-07T01:33:26;10.85;;;3.67;;
15312;SDS011;7757;52.626;4.746;2023-09-07T01:35:52;11.13;;;3.70;;
15312;SDS011;7757;52.626;4.746;2023-09-07T01:38:17;8.80;;;3.30;;
15312;SDS011;7757;52.626;4.746;2023-09-07T01:40:43;10.88;;;3.90;;
15312;SDS011;7757;52.626;4.746;2023-09-07T01:43:08;10.38;;;3.35;;
15312;SDS011;7757;52.626;4.746;2023-09-07T01:45:34;10.02;;;3.90;;
15312;SDS011;7757;52.626;4.746;2023-09-07T01:47:59;10.75;;;3.58;;
15312;SDS011;7757;52.626;4.746;2023-09-07T01:50:25;11.38;;;3.63;;
15312;SDS011;7757;52.626;4.746;2023-09-07T01:52:53;10.00;;;3.55;;
15312;SDS011;7757;52.626;4.746;2023-09-07T01:55:18;11.93;;;3.70;;
15312;SDS011;7757;52.626;4.746;2023-09-07T01:57:44;10.43;;;3.67;;
15312;SDS011;7757;52.626;4.746;2023-09-07T02:00:10;10.85;;;3.42;;
15312;SDS011;7757;52.626;4.746;2023-09-07T02:02:39;10.57;;;3.70;;
15312;SDS011;7757;52.626;4.746;2023-09-07T02:05:04;9.90;;;3.45;;
15312;SDS011;7757;52.626;4.746;2023-09-07T02:07:30;10.88;;;4.15;;
15312;SDS011;7757;52.626;4.746;2023-09-07T02:09:55;10.02;;;3.55;;
15312;SDS011;7757;52.626;4.746;2023-09-07T02:12:21;10.65;;;3.65;;
15312;SDS011;7757;52.626;4.746;2023-09-07T02:14:46;10.27;;;3.53;;
15312;SDS011;7757;52.626;4.746;2023-09-07T02:17:11;11.95;;;3.90;;
15312;SDS011;7757;52.626;4.746;2023-09-07T02:19:44;13.55;;;5.35;;
15312;SDS011;7757;52.626;4.746;2023-09-07T02:22:10;9.98;;;3.80;;
15312;SDS011;7757;52.626;4.746;2023-09-07T02:24:35;11.15;;;3.80;;
15312;SDS011;7757;52.626;4.746;2023-09-07T02:27:00;11.30;;;3.70;;
15312;SDS011;7757;52.626;4.746;2023-09-07T02:29:26;9.93;;;3.55;;
15312;SDS011;7757;52.626;4.746;2023-09-07T02:31:52;10.00;;;3.40;;
15312;SDS011;7757;52.626;4.746;2023-09-07T02:34:17;11.45;;;3.53;;
15312;SDS011;7757;52.626;4.746;2023-09-07T02:36:43;10.55;;;3.60;;
15312;SDS011;7757;52.626;4.746;2023-09-07T02:39:08;10.07;;;3.78;;
15312;SDS011;7757;52.626;4.746;2023-09-07T02:41:33;9.98;;;3.53;;
15312;SDS011;7757;52.626;4.746;2023-09-07T02:43:59;10.73;;;3.60;;
15312;SDS011;7757;52.626;4.746;2023-09-07T02:46:24;11.30;;;3.70;;
15312;SDS011;7757;52.626;4.746;2023-09-07T02:48:50;10.23;;;3.75;;
15312;SDS011;7757;52.626;4.746;2023-09-07T02:51:15;9.48;;;3.20;;
15312;SDS011;7757;52.626;4.746;2023-09-07T02:53:42;11.38;;;3.65;;
15312;SDS011;7757;52.626;4.746;2023-09-07T02:56:07;10.05;;;3.40;;
15312;SDS011;7757;52.626;4.746;2023-09-07T02:58:34;9.68;;;3.35;;
15312;SDS011;7757;52.626;4.746;2023-09-07T03:00:59;10.65;;;3.55;;
15312;SDS011;7757;52.626;4.746;2023-09-07T03:03:24;9.48;;;3.45;;
15312;SDS011;7757;52.626;4.746;2023-09-07T03:05:50;9.43;;;2.90;;
15312;SDS011;7757;52.626;4.746;2023-09-07T03:08:15;9.98;;;3.50;;
15312;SDS011;7757;52.626;4.746;2023-09-07T03:10:40;11.02;;;3.70;;
15312;SDS011;7757;52.626;4.746;2023-09-07T03:13:07;10.05;;;3.50;;
15312;SDS011;7757;52.626;4.746;2023-09-07T03:15:33;11.68;;;3.90;;
15312;SDS011;7757;52.626;4.746;2023-09-07T03:17:59;10.18;;;3.60;;
15312;SDS011;7757;52.626;4.746;2023-09-07T03:20:24;13.15;;;3.80;;
15312;SDS011;7757;52.626;4.746;2023-09-07T03:22:50;10.65;;;3.72;;
15312;SDS011;7757;52.626;4.746;2023-09-07T03:25:15;11.32;;;3.83;;
15312;SDS011;7757;52.626;4.746;2023-09-07T03:27:41;10.98;;;3.72;;
15312;SDS011;7757;52.626;4.746;2023-09-07T03:30:06;10.65;;;4.03;;
15312;SDS011;7757;52.626;4.746;2023-09-07T03:32:33;10.93;;;3.72;;
15312;SDS011;7757;52.626;4.746;2023-09-07T03:35:02;12.18;;;4.93;;
15312;SDS011;7757;52.626;4.746;2023-09-07T03:37:34;11.85;;;4.35;;
15312;SDS011;7757;52.626;4.746;2023-09-07T03:39:59;10.52;;;3.92;;
15312;SDS011;7757;52.626;4.746;2023-09-07T03:42:25;10.90;;;3.88;;
15312;SDS011;7757;52.626;4.746;2023-09-07T03:44:50;10.18;;;3.33;;
15312;SDS011;7757;52.626;4.746;2023-09-07T03:47:15;10.25;;;3.58;;
15312;SDS011;7757;52.626;4.746;2023-09-07T03:49:41;10.23;;;3.83;;
15312;SDS011;7757;52.626;4.746;2023-09-07T03:52:07;9.80;;;3.30;;
15312;SDS011;7757;52.626;4.746;2023-09-07T03:54:32;11.75;;;3.53;;
15312;SDS011;7757;52.626;4.746;2023-09-07T03:56:58;11.75;;;3.72;;
15312;SDS011;7757;52.626;4.746;2023-09-07T03:59:23;9.95;;;3.70;;
15312;SDS011;7757;52.626;4.746;2023-09-07T04:01:48;10.25;;;3.50;;
15312;SDS011;7757;52.626;4.746;2023-09-07T04:04:14;12.50;;;3.90;;
15312;SDS011;7757;52.626;4.746;2023-09-07T04:06:40;11.18;;;3.85;;
15312;SDS011;7757;52.626;4.746;2023-09-07T04:09:05;11.15;;;3.80;;
15312;SDS011;7757;52.626;4.746;2023-09-07T04:11:31;11.00;;;3.85;;
15312;SDS011;7757;52.626;4.746;2023-09-07T04:13:57;10.32;;;4.00;;
15312;SDS011;7757;52.626;4.746;2023-09-07T04:16:22;11.40;;;4.40;;
15312;SDS011;7757;52.626;4.746;2023-09-07T04:18:47;12.00;;;4.13;;
15312;SDS011;7757;52.626;4.746;2023-09-07T04:21:13;10.55;;;3.90;;
15312;SDS011;7757;52.626;4.746;2023-09-07T04:23:38;10.65;;;3.88;;
15312;SDS011;7757;52.626;4.746;2023-09-07T04:26:08;11.88;;;3.80;;
15312;SDS011;7757;52.626;4.746;2023-09-07T04:28:35;11.95;;;4.05;;
15312;SDS011;7757;52.626;4.746;2023-09-07T04:31:01;10.90;;;3.65;;
15312;SDS011;7757;52.626;4.746;2023-09-07T04:33:29;11.68;;;3.90;;
15312;SDS011;7757;52.626;4.746;2023-09-07T04:35:55;10.27;;;3.72;;
15312;SDS011;7757;52.626;4.746;2023-09-07T04:38:21;10.52;;;3.70;;
15312;SDS011;7757;52.626;4.746;2023-09-07T04:40:46;10.30;;;3.60;;
15312;SDS011;7757;52.626;4.746;2023-09-07T04:43:12;10.85;;;3.80;;
15312;SDS011;7757;52.626;4.746;2023-09-07T04:45:44;10.13;;;3.67;;
15312;SDS011;7757;52.626;4.746;2023-09-07T04:48:10;10.48;;;3.47;;
15312;SDS011;7757;52.626;4.746;2023-09-07T04:50:36;11.43;;;3.80;;
15312;SDS011;7757;52.626;4.746;2023-09-07T04:53:02;11.80;;;3.90;;
15312;SDS011;7757;52.626;4.746;2023-09-07T04:55:27;11.10;;;3.60;;
15312;SDS011;7757;52.626;4.746;2023-09-07T04:57:53;10.57;;;3.60;;
15312;SDS011;7757;52.626;4.746;2023-09-07T05:00:18;10.88;;;4.13;;
15312;SDS011;7757;52.626;4.746;2023-09-07T05:02:43;11.48;;;3.97;;
15312;SDS011;7757;52.626;4.746;2023-09-07T05:05:09;11.07;;;3.88;;
15312;SDS011;7757;52.626;4.746;2023-09-07T05:07:35;11.10;;;3.92;;
15312;SDS011;7757;52.626;4.746;2023-09-07T05:10:00;12.73;;;5.43;;
15312;SDS011;7757;52.626;4.746;2023-09-07T05:12:25;10.77;;;3.90;;
15312;SDS011;7757;52.626;4.746;2023-09-07T05:14:51;11.70;;;4.20;;
15312;SDS011;7757;52.626;4.746;2023-09-07T05:17:16;11.57;;;4.10;;
15312;SDS011;7757;52.626;4.746;2023-09-07T05:19:42;12.95;;;4.45;;
15312;SDS011;7757;52.626;4.746;2023-09-07T05:22:07;12.60;;;4.47;;
15312;SDS011;7757;52.626;4.746;2023-09-07T05:24:33;11.27;;;3.80;;
15312;SDS011;7757;52.626;4.746;2023-09-07T05:26:58;11.48;;;4.10;;
15312;SDS011;7757;52.626;4.746;2023-09-07T05:29:24;12.50;;;3.78;;
15312;SDS011;7757;52.626;4.746;2023-09-07T05:31:49;11.27;;;4.00;;
15312;SDS011;7757;52.626;4.746;2023-09-07T05:34:14;10.50;;;3.83;;
15312;SDS011;7757;52.626;4.746;2023-09-07T05:36:40;12.38;;;4.68;;
15312;SDS011;7757;52.626;4.746;2023-09-07T05:39:05;12.18;;;3.75;;
15312;SDS011;7757;52.626;4.746;2023-09-07T05:41:31;10.07;;;3.80;;
15312;SDS011;7757;52.626;4.746;2023-09-07T05:43:56;9.93;;;3.83;;
15312;SDS011;7757;52.626;4.746;2023-09-07T05:46:22;11.55;;;4.05;;
15312;SDS011;7757;52.626;4.746;2023-09-07T05:48:47;10.93;;;4.00;;
15312;SDS011;7757;52.626;4.746;2023-09-07T05:51:13;11.38;;;4.30;;
15312;SDS011;7757;52.626;4.746;2023-09-07T05:53:38;11.27;;;4.38;;
15312;SDS011;7757;52.626;4.746;2023-09-07T05:56:04;11.07;;;3.90;;
15312;SDS011;7757;52.626;4.746;2023-09-07T05:58:29;13.18;;;5.28;;
15312;SDS011;7757;52.626;4.746;2023-09-07T06:00:55;14.00;;;6.00;;
15312;SDS011;7757;52.626;4.746;2023-09-07T06:03:20;14.10;;;6.60;;
15312;SDS011;7757;52.626;4.746;2023-09-07T06:05:46;12.02;;;4.90;;
15312;SDS011;7757;52.626;4.746;2023-09-07T06:08:11;12.05;;;4.68;;
15312;SDS011;7757;52.626;4.746;2023-09-07T06:10:36;11.70;;;4.55;;
15312;SDS011;7757;52.626;4.746;2023-09-07T06:13:03;12.15;;;4.00;;
15312;SDS011;7757;52.626;4.746;2023-09-07T06:15:29;11.77;;;4.10;;
15312;SDS011;7757;52.626;4.746;2023-09-07T06:17:55;11.20;;;3.92;;
15312;SDS011;7757;52.626;4.746;2023-09-07T06:20:21;10.45;;;3.60;;
15312;SDS011;7757;52.626;4.746;2023-09-07T06:22:46;11.10;;;3.90;;
15312;SDS011;7757;52.626;4.746;2023-09-07T06:25:12;10.57;;;3.90;;
15312;SDS011;7757;52.626;4.746;2023-09-07T06:27:37;12.23;;;4.35;;
15312;SDS011;7757;52.626;4.746;2023-09-07T06:30:06;13.65;;;4.55;;
15312;SDS011;7757;52.626;4.746;2023-09-07T06:32:31;10.73;;;3.95;;
15312;SDS011;7757;52.626;4.746;2023-09-07T06:34:57;11.02;;;4.28;;
15312;SDS011;7757;52.626;4.746;2023-09-07T06:37:23;11.65;;;4.25;;
15312;SDS011;7757;52.626;4.746;2023-09-07T06:39:49;11.60;;;5.00;;
15312;SDS011;7757;52.626;4.746;2023-09-07T06:42:15;12.80;;;5.25;;
15312;SDS011;7757;52.626;4.746;2023-09-07T06:44:41;11.75;;;4.38;;
15312;SDS011;7757;52.626;4.746;2023-09-07T06:47:06;11.95;;;3.70;;
15312;SDS011;7757;52.626;4.746;2023-09-07T06:49:32;10.48;;;3.70;;
15312;SDS011;7757;52.626;4.746;2023-09-07T06:51:57;11.07;;;3.58;;
15312;SDS011;7757;52.626;4.746;2023-09-07T06:54:23;13.20;;;6.30;;
15312;SDS011;7757;52.626;4.746;2023-09-07T06:56:48;17.25;;;6.20;;
15312;SDS011;7757;52.626;4.746;2023-09-07T06:59:14;10.85;;;4.20;;
15312;SDS011;7757;52.626;4.746;2023-09-07T07:01:39;12.07;;;5.20;;
15312;SDS011;7757;52.626;4.746;2023-09-07T07:04:05;12.90;;;5.00;;
15312;SDS011;7757;52.626;4.746;2023-09-07T07:06:31;10.65;;;3.95;;
15312;SDS011;7757;52.626;4.746;2023-09-07T07:08:56;14.52;;;6.40;;
15312;SDS011;7757;52.626;4.746;2023-09-07T07:11:22;10.70;;;3.97;;
15312;SDS011;7757;52.626;4.746;2023-09-07T07:13:47;11.63;;;4.97;;
15312;SDS011;7757;52.626;4.746;2023-09-07T07:16:13;16.17;;;6.50;;
15312;SDS011;7757;52.626;4.746;2023-09-07T07:18:38;17.00;;;6.68;;
15312;SDS011;7757;52.626;4.746;2023-09-07T07:21:04;15.20;;;6.95;;
15312;SDS011;7757;52.626;4.746;2023-09-07T07:23:30;16.92;;;6.85;;
15312;SDS011;7757;52.626;4.746;2023-09-07T07:25:56;12.93;;;5.10;;
15312;SDS011;7757;52.626;4.746;2023-09-07T07:28:21;12.82;;;5.85;;
15312;SDS011;7757;52.626;4.746;2023-09-07T07:30:46;14.30;;;6.57;;
15312;SDS011;7757;52.626;4.746;2023-09-07T07:33:13;12.57;;;5.85;;
15312;SDS011;7757;52.626;4.746;2023-09-07T07:35:38;12.93;;;5.93;;
15312;SDS011;7757;52.626;4.746;2023-09-07T07:38:04;14.48;;;5.18;;
15312;SDS011;7757;52.626;4.746;2023-09-07T07:40:31;12.63;;;5.10;;
15312;SDS011;7757;52.626;4.746;2023-09-07T07:42:56;14.98;;;7.00;;
15312;SDS011;7757;52.626;4.746;2023-09-07T07:45:22;14.23;;;6.20;;
15312;SDS011;7757;52.626;4.746;2023-09-07T07:47:53;13.10;;;5.45;;
15312;SDS011;7757;52.626;4.746;2023-09-07T07:50:19;14.18;;;5.75;;
15312;SDS011;7757;52.626;4.746;2023-09-07T07:52:44;13.35;;;4.20;;
15312;SDS011;7757;52.626;4.746;2023-09-07T07:55:10;11.88;;;5.07;;
15312;SDS011;7757;52.626;4.746;2023-09-07T07:57:37;12.77;;;5.50;;
15312;SDS011;7757;52.626;4.746;2023-09-07T08:00:03;11.25;;;4.22;;
15312;SDS011;7757;52.626;4.746;2023-09-07T08:02:30;10.90;;;4.25;;
15312;SDS011;7757;52.626;4.746;2023-09-07T08:04:56;10.85;;;4.63;;
15312;SDS011;7757;52.626;4.746;2023-09-07T08:07:22;13.02;;;5.18;;
15312;SDS011;7757;52.626;4.746;2023-09-07T08:09:47;10.32;;;3.90;;
15312;SDS011;7757;52.626;4.746;2023-09-07T08:12:13;10.55;;;3.90;;
15312;SDS011;7757;52.626;4.746;2023-09-07T08:14:38;11.80;;;4.95;;
15312;SDS011;7757;52.626;4.746;2023-09-07T08:17:03;10.70;;;4.28;;
15312;SDS011;7757;52.626;4.746;2023-09-07T08:19:29;16.10;;;6.65;;
15312;SDS011;7757;52.626;4.746;2023-09-07T08:21:54;14.50;;;6.28;;
15312;SDS011;7757;52.626;4.746;2023-09-07T08:24:20;11.65;;;4.50;;
15312;SDS011;7757;52.626;4.746;2023-09-07T08:26:45;12.25;;;5.18;;
15312;SDS011;7757;52.626;4.746;2023-09-07T08:29:12;12.35;;;5.28;;
15312;SDS011;7757;52.626;4.746;2023-09-07T08:31:38;14.70;;;5.75;;
15312;SDS011;7757;52.626;4.746;2023-09-07T08:34:07;13.88;;;6.70;;
15312;SDS011;7757;52.626;4.746;2023-09-07T08:36:36;17.95;;;7.03;;
15312;SDS011;7757;52.626;4.746;2023-09-07T08:39:05;12.65;;;6.03;;
15312;SDS011;7757;52.626;4.746;2023-09-07T08:41:36;12.18;;;3.95;;
15312;SDS011;7757;52.626;4.746;2023-09-07T08:44:07;12.57;;;5.07;;
15312;SDS011;7757;52.626;4.746;2023-09-07T08:46:33;13.52;;;5.78;;
15312;SDS011;7757;52.626;4.746;2023-09-07T08:48:59;16.65;;;6.05;;
15312;SDS011;7757;52.626;4.746;2023-09-07T08:51:26;17.27;;;4.97;;
15312;SDS011;7757;52.626;4.746;2023-09-07T08:53:53;15.95;;;5.97;;
15312;SDS011;7757;52.626;4.746;2023-09-07T08:56:18;15.68;;;5.47;;
15312;SDS011;7757;52.626;4.746;2023-09-07T08:58:46;12.00;;;5.03;;
15312;SDS011;7757;52.626;4.746;2023-09-07T09:01:14;16.55;;;6.45;;
15312;SDS011;7757;52.626;4.746;2023-09-07T09:03:40;12.23;;;5.53;;
15312;SDS011;7757;52.626;4.746;2023-09-07T09:06:07;12.27;;;5.78;;
15312;SDS011;7757;52.626;4.746;2023-09-07T09:08:43;11.55;;;4.53;;
15312;SDS011;7757;52.626;4.746;2023-09-07T09:11:09;12.75;;;4.68;;
15312;SDS011;7757;52.626;4.746;2023-09-07T09:13:34;16.70;;;5.97;;
15312;SDS011;7757;52.626;4.746;2023-09-07T09:16:00;13.68;;;5.25;;
15312;SDS011;7757;52.626;4.746;2023-09-07T09:18:28;15.10;;;6.10;;
15312;SDS011;7757;52.626;4.746;2023-09-07T09:20:56;13.90;;;5.25;;
15312;SDS011;7757;52.626;4.746;2023-09-07T09:23:35;11.50;;;4.18;;
15312;SDS011;7757;52.626;4.746;2023-09-07T09:26:04;12.07;;;4.78;;
15312;SDS011;7757;52.626;4.746;2023-09-07T09:28:33;11.98;;;5.22;;
15312;SDS011;7757;52.626;4.746;2023-09-07T09:31:00;11.00;;;4.40;;
15312;SDS011;7757;52.626;4.746;2023-09-07T09:33:27;12.18;;;4.63;;
15312;SDS011;7757;52.626;4.746;2023-09-07T09:35:55;13.52;;;6.05;;
15312;SDS011;7757;52.626;4.746;2023-09-07T09:38:21;14.07;;;4.47;;
15312;SDS011;7757;52.626;4.746;2023-09-07T09:40:47;13.93;;;5.65;;
15312;SDS011;7757;52.626;4.746;2023-09-07T09:43:12;14.25;;;6.10;;
15312;SDS011;7757;52.626;4.746;2023-09-07T09:45:39;12.60;;;5.38;;
15312;SDS011;7757;52.626;4.746;2023-09-07T09:48:04;13.13;;;5.32;;
15312;SDS011;7757;52.626;4.746;2023-09-07T09:50:31;12.65;;;5.03;;
15312;SDS011;7757;52.626;4.746;2023-09-07T09:53:03;13.85;;;4.90;;
15312;SDS011;7757;52.626;4.746;2023-09-07T09:55:32;12.88;;;5.50;;
15312;SDS011;7757;52.626;4.746;2023-09-07T09:57:57;12.90;;;5.07;;
15312;SDS011;7757;52.626;4.746;2023-09-07T10:00:23;14.93;;;5.75;;
15312;SDS011;7757;52.626;4.746;2023-09-07T10:03:01;15.25;;;4.68;;
15312;SDS011;7757;52.626;4.746;2023-09-07T10:05:32;11.82;;;4.43;;
15312;SDS011;7757;52.626;4.746;2023-09-07T10:08:04;14.52;;;5.30;;
15312;SDS011;7757;52.626;4.746;2023-09-07T10:10:34;12.20;;;4.13;;
15312;SDS011;7757;52.626;4.746;2023-09-07T10:13:01;13.20;;;4.85;;
15312;SDS011;7757;52.626;4.746;2023-09-07T10:15:28;13.60;;;4.97;;
15312;SDS011;7757;52.626;4.746;2023-09-07T10:18:10;15.65;;;3.95;;
15312;SDS011;7757;52.626;4.746;2023-09-07T10:20:57;13.68;;;5.10;;
15312;SDS011;7757;52.626;4.746;2023-09-07T10:23:34;10.20;;;4.07;;
15312;SDS011;7757;52.626;4.746;2023-09-07T10:26:09;11.18;;;3.90;;
15312;SDS011;7757;52.626;4.746;2023-09-07T10:28:40;16.17;;;4.55;;
15312;SDS011;7757;52.626;4.746;2023-09-07T10:31:07;11.98;;;4.38;;
15312;SDS011;7757;52.626;4.746;2023-09-07T10:33:40;11.57;;;4.63;;
15312;SDS011;7757;52.626;4.746;2023-09-07T10:36:06;11.75;;;4.15;;
15312;SDS011;7757;52.626;4.746;2023-09-07T10:38:32;11.52;;;4.50;;
15312;SDS011;7757;52.626;4.746;2023-09-07T10:40:59;10.98;;;4.22;;
15312;SDS011;7757;52.626;4.746;2023-09-07T10:43:30;11.68;;;3.75;;
15312;SDS011;7757;52.626;4.746;2023-09-07T10:45:57;11.63;;;3.97;;
15312;SDS011;7757;52.626;4.746;2023-09-07T10:48:24;15.32;;;4.28;;
15312;SDS011;7757;52.626;4.746;2023-09-07T10:50:50;13.02;;;4.65;;
15312;SDS011;7757;52.626;4.746;2023-09-07T10:53:26;13.20;;;4.75;;
15312;SDS011;7757;52.626;4.746;2023-09-07T10:55:53;12.63;;;4.50;;
15312;SDS011;7757;52.626;4.746;2023-09-07T10:58:30;12.60;;;4.43;;
15312;SDS011;7757;52.626;4.746;2023-09-07T11:01:00;12.50;;;4.90;;
15312;SDS011;7757;52.626;4.746;2023-09-07T11:03:27;13.68;;;5.55;;
15312;SDS011;7757;52.626;4.746;2023-09-07T11:05:57;12.50;;;4.80;;
15312;SDS011;7757;52.626;4.746;2023-09-07T11:08:26;12.60;;;5.30;;
15312;SDS011;7757;52.626;4.746;2023-09-07T11:10:54;11.90;;;4.65;;
15312;SDS011;7757;52.626;4.746;2023-09-07T11:13:19;12.65;;;4.32;;
15312;SDS011;7757;52.626;4.746;2023-09-07T11:15:45;12.65;;;4.60;;
15312;SDS011;7757;52.626;4.746;2023-09-07T11:18:10;11.95;;;4.85;;
15312;SDS011;7757;52.626;4.746;2023-09-07T11:20:36;15.30;;;4.53;;
15312;SDS011;7757;52.626;4.746;2023-09-07T11:23:04;18.08;;;5.05;;
15312;SDS011;7757;52.626;4.746;2023-09-07T11:25:37;11.52;;;4.90;;
15312;SDS011;7757;52.626;4.746;2023-09-07T11:28:04;11.80;;;4.82;;
15312;SDS011;7757;52.626;4.746;2023-09-07T11:30:31;12.65;;;4.38;;
15312;SDS011;7757;52.626;4.746;2023-09-07T11:33:01;13.85;;;4.90;;
15312;SDS011;7757;52.626;4.746;2023-09-07T11:35:30;11.05;;;4.47;;
15312;SDS011;7757;52.626;4.746;2023-09-07T11:37:56;13.80;;;4.22;;
15312;SDS011;7757;52.626;4.746;2023-09-07T11:40:22;12.27;;;4.72;;
15312;SDS011;7757;52.626;4.746;2023-09-07T11:42:47;10.60;;;4.45;;
15312;SDS011;7757;52.626;4.746;2023-09-07T11:45:13;13.75;;;4.95;;
15312;SDS011;7757;52.626;4.746;2023-09-07T11:47:38;14.55;;;5.30;;
15312;SDS011;7757;52.626;4.746;2023-09-07T11:50:05;12.20;;;5.03;;
15312;SDS011;7757;52.626;4.746;2023-09-07T11:52:31;12.20;;;5.07;;
15312;SDS011;7757;52.626;4.746;2023-09-07T11:54:57;12.13;;;4.60;;
15312;SDS011;7757;52.626;4.746;2023-09-07T11:57:22;12.02;;;4.50;;
15312;SDS011;7757;52.626;4.746;2023-09-07T11:59:48;11.18;;;4.35;;
15312;SDS011;7757;52.626;4.746;2023-09-07T12:02:13;11.85;;;4.63;;
15312;SDS011;7757;52.626;4.746;2023-09-07T12:04:40;12.10;;;4.68;;
15312;SDS011;7757;52.626;4.746;2023-09-07T12:07:06;11.95;;;4.32;;
15312;SDS011;7757;52.626;4.746;2023-09-07T12:09:31;14.18;;;4.70;;
15312;SDS011;7757;52.626;4.746;2023-09-07T12:11:57;13.25;;;4.80;;
15312;SDS011;7757;52.626;4.746;2023-09-07T12:14:23;13.10;;;4.72;;
15312;SDS011;7757;52.626;4.746;2023-09-07T12:16:48;11.02;;;4.32;;
15312;SDS011;7757;52.626;4.746;2023-09-07T12:19:14;11.80;;;4.50;;
15312;SDS011;7757;52.626;4.746;2023-09-07T12:21:39;12.38;;;4.68;;
15312;SDS011;7757;52.626;4.746;2023-09-07T12:24:04;10.95;;;4.20;;
15312;SDS011;7757;52.626;4.746;2023-09-07T12:26:30;10.50;;;4.07;;
15312;SDS011;7757;52.626;4.746;2023-09-07T12:28:56;15.10;;;4.68;;
15312;SDS011;7757;52.626;4.746;2023-09-07T12:31:21;12.38;;;4.38;;
15312;SDS011;7757;52.626;4.746;2023-09-07T12:33:47;11.50;;;4.47;;
15312;SDS011;7757;52.626;4.746;2023-09-07T12:36:12;13.10;;;4.28;;
15312;SDS011;7757;52.626;4.746;2023-09-07T12:38:38;13.98;;;5.18;;
15312;SDS011;7757;52.626;4.746;2023-09-07T12:41:04;13.25;;;4.85;;
15312;SDS011;7757;52.626;4.746;2023-09-07T12:43:29;15.68;;;4.75;;
15312;SDS011;7757;52.626;4.746;2023-09-07T12:45:54;13.45;;;5.00;;
15312;SDS011;7757;52.626;4.746;2023-09-07T12:48:20;13.55;;;4.70;;
15312;SDS011;7757;52.626;4.746;2023-09-07T12:50:45;15.45;;;4.93;;
15312;SDS011;7757;52.626;4.746;2023-09-07T12:53:11;12.85;;;4.80;;
15312;SDS011;7757;52.626;4.746;2023-09-07T12:55:36;12.38;;;4.95;;
15312;SDS011;7757;52.626;4.746;2023-09-07T12:58:02;14.10;;;5.00;;
15312;SDS011;7757;52.626;4.746;2023-09-07T13:00:27;13.77;;;5.15;;
15312;SDS011;7757;52.626;4.746;2023-09-07T13:02:54;13.93;;;5.25;;
15312;SDS011;7757;52.626;4.746;2023-09-07T13:05:19;13.48;;;4.75;;
15312;SDS011;7757;52.626;4.746;2023-09-07T13:07:45;15.90;;;5.18;;
15312;SDS011;7757;52.626;4.746;2023-09-07T13:10:11;20.30;;;5.57;;
15312;SDS011;7757;52.626;4.746;2023-09-07T13:12:36;14.30;;;5.07;;
15312;SDS011;7757;52.626;4.746;2023-09-07T13:15:02;13.23;;;4.97;;
15312;SDS011;7757;52.626;4.746;2023-09-07T13:17:31;14.18;;;5.15;;
15312;SDS011;7757;52.626;4.746;2023-09-07T13:19:56;16.17;;;5.57;;
15312;SDS011;7757;52.626;4.746;2023-09-07T13:22:22;14.23;;;5.32;;
15312;SDS011;7757;52.626;4.746;2023-09-07T13:24:48;15.90;;;5.53;;
15312;SDS011;7757;52.626;4.746;2023-09-07T13:27:13;14.00;;;5.15;;
15312;SDS011;7757;52.626;4.746;2023-09-07T13:29:38;13.93;;;5.15;;
15312;SDS011;7757;52.626;4.746;2023-09-07T13:32:04;11.48;;;4.63;;
15312;SDS011;7757;52.626;4.746;2023-09-07T13:34:29;12.80;;;5.20;;
15312;SDS011;7757;52.626;4.746;2023-09-07T13:36:55;12.13;;;4.40;;
15312;SDS011;7757;52.626;4.746;2023-09-07T13:39:21;13.13;;;5.13;;
15312;SDS011;7757;52.626;4.746;2023-09-07T13:41:47;13.77;;;4.80;;
15312;SDS011;7757;52.626;4.746;2023-09-07T13:44:16;14.38;;;5.28;;
15312;SDS011;7757;52.626;4.746;2023-09-07T13:46:42;14.70;;;5.30;;
15312;SDS011;7757;52.626;4.746;2023-09-07T13:49:09;12.93;;;5.18;;
15312;SDS011;7757;52.626;4.746;2023-09-07T13:51:34;12.50;;;5.40;;
15312;SDS011;7757;52.626;4.746;2023-09-07T13:54:06;12.57;;;5.40;;
15312;SDS011;7757;52.626;4.746;2023-09-07T13:56:32;14.95;;;5.30;;
15312;SDS011;7757;52.626;4.746;2023-09-07T13:59:01;12.45;;;5.10;;
15312;SDS011;7757;52.626;4.746;2023-09-07T14:01:27;12.82;;;4.80;;
15312;SDS011;7757;52.626;4.746;2023-09-07T14:03:52;13.27;;;4.60;;
15312;SDS011;7757;52.626;4.746;2023-09-07T14:06:18;14.85;;;4.93;;
15312;SDS011;7757;52.626;4.746;2023-09-07T14:08:47;12.65;;;4.72;;
15312;SDS011;7757;52.626;4.746;2023-09-07T14:11:14;14.85;;;4.47;;
15312;SDS011;7757;52.626;4.746;2023-09-07T14:13:39;13.75;;;4.47;;
15312;SDS011;7757;52.626;4.746;2023-09-07T14:16:05;12.07;;;4.85;;
15312;SDS011;7757;52.626;4.746;2023-09-07T14:18:30;11.82;;;4.65;;
15312;SDS011;7757;52.626;4.746;2023-09-07T14:20:55;13.55;;;5.15;;
15312;SDS011;7757;52.626;4.746;2023-09-07T14:23:24;11.63;;;4.43;;
15312;SDS011;7757;52.626;4.746;2023-09-07T14:25:51;13.10;;;5.10;;
15312;SDS011;7757;52.626;4.746;2023-09-07T14:28:17;11.57;;;4.40;;
15312;SDS011;7757;52.626;4.746;2023-09-07T14:30:42;15.95;;;4.72;;
15312;SDS011;7757;52.626;4.746;2023-09-07T14:33:08;13.10;;;4.68;;
15312;SDS011;7757;52.626;4.746;2023-09-07T14:35:33;13.23;;;4.55;;
15312;SDS011;7757;52.626;4.746;2023-09-07T14:37:59;13.27;;;4.80;;
15312;SDS011;7757;52.626;4.746;2023-09-07T14:40:25;12.38;;;4.65;;
15312;SDS011;7757;52.626;4.746;2023-09-07T14:42:51;11.75;;;4.20;;